Latest Weather Observations for Parkes Airport

IDN60801

Issued at 5:32 am EDT Tuesday 6 December 2016 (issued every 30 minutes, with the page automatically refreshed every 10 minutes)

About weather observations | Map of weather stations | Latest weather observations for NSW | Other Formats
Station Details ID: 065068 Name: PARKES AIRPORT AWS Lat: -33.13 Lon: 148.24 Height: 323.3 m
Data from the previous 72 hours. | See also: Recent months at Parkes Airport
Date/Time
EDT
Temp
°C
App
Temp
°C
Dew
Point
°C
Rel
Hum
%
Delta-T
°C
Wind Press
QNH
hPa
Press
MSL
hPa
Rain since
9am
mm
Dir  Spd
km/h
Gust
km/h
Spd
kts
Gust
kts
06/05:30am 21.5 24.1 18.3 82 2.0 NNW 2 7 1 4 1011.7 1010.2 0.2
06/05:00am 21.7 24.7 18.5 82 2.0 CALM 0 0 0 0 1011.0 1009.5 0.2
06/04:30am 21.4 23.2 18.4 83 1.9 NE 6 11 3 6 1010.8 1009.3 0.2
06/04:00am 21.6 24.4 18.8 84 1.8 E 2 7 1 4 1010.2 1008.7 0.2
06/03:30am 21.6 24.8 18.8 84 1.8 CALM 0 0 0 0 1010.3 1008.8 0.2
06/03:00am 21.5 23.9 18.7 84 1.8 N 4 9 2 5 1010.4 1008.9 0.2
06/02:30am 21.8 22.3 18.4 81 2.2 ENE 13 19 7 10 1010.1 1008.6 0.2
06/02:00am 21.3 23.8 19.0 87 1.5 NW 4 11 2 6 1011.0 1009.5 0.2
06/01:30am 21.8 25.1 19.0 84 1.8 CALM 0 0 0 0 1011.0 1009.5 0.2
06/01:00am 21.5 24.8 19.1 86 1.5 CALM 0 0 0 0 1011.6 1010.1 0.2
06/12:30am 21.6 23.5 19.0 85 1.7 NNE 7 11 4 6 1011.3 1009.8 0.2
06/12:00am 22.1 24.0 18.9 82 2.0 E 7 11 4 6 1011.8 1010.3 0.2
 
Date/Time
EDT
Temp
°C
App
Temp
°C
Dew
Point
°C
Rel
Hum
%
Delta-T
°C
Wind Press
QNH
hPa
Press
MSL
hPa
Rain since
9am
mm
Dir  Spd
km/h
Gust
km/h
Spd
kts
Gust
kts
05/11:30pm 21.8 25.0 18.8 83 1.9 CALM 0 6 0 3 1012.4 1010.9 0.2
05/11:00pm 21.7 22.7 18.7 83 1.9 NNE 11 15 6 8 1012.3 1010.8 0.2
05/10:30pm 21.9 24.1 19.1 84 1.8 NNE 6 13 3 7 1012.5 1011.0 0.2
05/10:00pm 22.1 23.4 18.5 80 2.3 ENE 9 11 5 6 1012.5 1011.0 0.2
05/09:30pm 22.4 23.8 18.6 79 2.4 E 9 11 5 6 1012.2 1010.7 0.2
05/09:00pm 22.8 23.9 18.8 78 2.6 E 11 13 6 7 1011.9 1010.4 0.2
05/08:30pm 23.6 25.5 17.6 69 3.8 WNW 4 11 2 6 1012.3 1010.8 0.2
05/08:00pm 26.1 27.0 16.1 54 6.2 WSW 6 9 3 5 1012.1 1010.6 0.0
05/07:30pm 27.4 25.6 14.4 45 7.9 SW 17 24 9 13 1011.4 1009.9 0.0
05/07:00pm 28.5 25.1 13.6 40 9.0 SW 24 32 13 17 1010.9 1009.4 0.0
05/06:30pm 29.2 25.7 13.4 38 9.5 SW 24 33 13 18 1010.4 1008.9 0.0
05/06:00pm 30.1 29.4 15.4 41 9.2 S 13 20 7 11 1010.2 1008.7 0.0
05/05:30pm 30.3 30.8 15.6 41 9.2 ESE 7 9 4 5 1010.1 1008.6 0.0
05/05:00pm 30.8 30.9 14.4 36 10.1 ESE 7 11 4 6 1009.8 1008.3 0.0
05/04:30pm 31.1 30.8 14.3 36 10.3 ESE 9 11 5 6 1009.8 1008.3 0.0
05/04:00pm 31.3 31.1 13.6 34 10.8 ESE 7 15 4 8 1009.9 1008.4 0.0
05/03:30pm 32.4 31.7 13.1 31 11.7 NNE 9 11 5 6 1010.0 1008.5 0.0
05/03:00pm 31.7 31.8 13.9 34 10.9 NNW 6 13 3 7 1010.2 1008.7 0.0
05/02:30pm 31.5 32.3 13.7 33 10.9 W 2 7 1 4 1010.4 1008.9 0.0
05/02:00pm 31.3 31.1 13.6 34 10.8 SW 7 13 4 7 1010.8 1009.3 0.0
05/01:30pm 31.0 27.6 13.7 34 10.5 WSW 24 39 13 21 1011.7 1010.2 0.0
05/01:21pm 30.6 26.1 13.8 35 10.2 WSW 30 48 16 26 1011.6 1010.1 0.0
05/01:15pm 30.1 25.2 13.8 37 9.9 WSW 32 48 17 26 1011.5 1010.0 0.0
05/01:00pm 32.9 29.1 12.5 29 12.3 W 24 30 13 16 1010.9 1009.4 0.0
05/12:30pm 34.4 32.0 11.5 25 13.7 W 15 20 8 11 1010.1 1008.6 0.0
05/12:00pm 34.4 32.0 11.5 25 13.7 WSW 15 22 8 12 1010.0 1008.5 0.0
05/11:30am 33.7 31.1 12.1 27 13.0 W 17 24 9 13 1010.4 1008.9 0.0
05/11:00am 33.4 31.7 12.4 28 12.7 W 13 19 7 10 1010.3 1008.8 0.0
05/10:30am 34.6 32.7 12.9 27 13.3 W 15 26 8 14 1010.1 1008.6 0.0
05/10:00am 34.3 31.5 12.6 27 13.2 NW 19 22 10 12 1010.1 1008.6 0.0
05/09:30am 33.5 30.7 12.5 28 12.7 NW 19 28 10 15 1010.4 1008.9 0.0
05/09:00am 33.1 30.3 12.7 29 12.4 NNW 19 28 10 15 1010.4 1008.9 0.0
05/08:30am 32.0 31.0 14.6 34 10.8 N 13 17 7 9 1010.5 1009.1 0.0
05/08:00am 29.8 27.7 13.5 36 9.9 NNE 17 20 9 11 1010.1 1008.6 0.0
05/07:30am 28.5 27.7 15.1 44 8.3 NNE 13 20 7 11 1009.8 1008.3 0.0
05/07:00am 26.4 27.2 15.8 52 6.6 NNE 6 11 3 6 1009.6 1008.1 0.0
05/06:30am 24.4 24.0 15.3 57 5.5 NNE 11 19 6 10 1009.4 1007.9 0.0
05/06:00am 22.2 22.7 15.5 66 4.1 N 7 9 4 5 1009.0 1007.5 0.0
05/05:30am 23.5 24.7 15.8 62 4.7 ENE 4 11 2 6 1008.5 1007.0 0.0
05/05:00am 24.3 23.5 16.0 60 5.1 NE 15 19 8 10 1008.4 1006.9 0.0
05/04:30am 24.3 23.3 16.6 62 4.8 E 17 24 9 13 1008.3 1006.8 0.0
05/04:00am 24.4 23.3 16.4 61 5.0 ENE 17 20 9 11 1009.0 1007.5 0.0
05/03:30am 26.3 27.4 14.7 48 7.1 SW 2 9 1 5 1009.5 1008.0 0.0
05/03:00am 27.5 26.6 13.8 43 8.3 NNW 11 19 6 10 1009.4 1007.9 0.0
05/02:30am 29.1 26.1 12.5 36 9.9 NNW 20 32 11 17 1009.4 1007.9 0.0
05/02:00am 29.0 26.5 12.4 36 9.9 N 17 24 9 13 1008.3 1006.8 0.0
05/01:30am 29.2 27.0 12.2 35 10.1 N 15 19 8 10 1008.3 1006.8 0.0
05/01:00am 29.7 26.1 11.7 33 10.6 NNE 22 32 12 17 1008.1 1006.6 0.0
05/12:30am 30.0 26.2 11.0 31 11.1 NNE 22 33 12 18 1008.2 1006.7 0.0
05/12:00am 29.9 25.8 11.4 32 10.9 NE 24 35 13 19 1008.1 1006.6 0.0
 
Date/Time
EDT
Temp
°C
App
Temp
°C
Dew
Point
°C
Rel
Hum
%
Delta-T
°C
Wind Press
QNH
hPa
Press
MSL
hPa
Rain since
9am
mm
Dir  Spd
km/h
Gust
km/h
Spd
kts
Gust
kts
04/11:30pm 26.9 25.9 12.2 40 8.6 N 9 13 5 7 1008.3 1006.8 0.0
04/11:00pm 27.1 25.9 12.7 41 8.5 NE 11 15 6 8 1008.5 1007.0 0.0
04/10:30pm 26.4 24.9 13.2 44 7.8 NE 13 15 7 8 1008.5 1007.0 0.0
04/10:00pm 26.6 25.0 14.0 46 7.6 ENE 15 17 8 9 1008.8 1007.3 0.0
04/09:30pm 26.6 24.6 14.0 46 7.6 E 17 19 9 10 1009.0 1007.5 0.0
04/09:00pm 26.7 24.9 14.5 47 7.4 ENE 17 19 9 10 1009.2 1007.7 0.0
04/08:30pm 27.3 26.3 14.7 46 7.7 ENE 13 17 7 9 1009.5 1008.0 0.0
04/08:00pm 27.4 27.6 15.7 48 7.3 ENE 9 13 5 7 1009.9 1008.4 0.0
04/07:30pm 28.4 27.2 15.0 44 8.3 N 15 20 8 11 1010.1 1008.6 0.0
04/07:12pm 28.2 24.6 14.1 42 8.6 W 26 48 14 26 1010.6 1009.2 0.0
04/07:07pm 29.7 26.6 12.2 34 10.4 WNW 20 48 11 26 1010.8 1009.3 0.0
04/07:00pm 32.6 30.3 10.6 26 12.9 W 13 17 7 9 1010.3 1008.8 0.0
04/06:30pm 34.5 33.0 10.4 23 14.2 WNW 9 15 5 8 1009.5 1008.0 0.0
04/06:00pm 35.3 33.2 9.7 21 15.0 WNW 11 15 6 8 1009.4 1007.9 0.0
04/05:30pm 36.1 33.6 8.0 18 16.1 WNW 11 17 6 9 1009.6 1008.1 0.0
04/05:00pm 35.8 34.2 10.1 21 15.2 WNW 9 15 5 8 1009.9 1008.4 0.0
04/04:30pm 35.5 33.8 9.8 21 15.0 WNW 9 17 5 9 1010.1 1008.6 0.0
04/04:00pm 35.6 31.4 7.6 18 15.9 WNW 19 28 10 15 1010.5 1009.1 0.0
04/03:30pm 35.5 32.1 9.1 20 15.3 W 17 26 9 14 1011.1 1009.6 0.0
04/03:00pm 37.3 32.5 9.0 18 16.5 NNW 24 33 13 18 1011.6 1010.1 0.0
04/02:30pm 36.8 32.9 9.4 19 16.0 NNW 20 32 11 17 1011.7 1010.2 0.0
04/02:00pm 35.6 32.8 13.1 25 13.8 NNW 20 28 11 15 1012.3 1010.8 0.0
04/01:30pm 34.7 31.8 13.0 27 13.3 NNW 20 33 11 18 1012.7 1011.2 0.0
04/01:00pm 35.2 31.1 12.8 26 13.7 NNW 26 37 14 20 1013.1 1011.6 0.0
04/12:30pm 35.1 32.3 13.3 27 13.4 NNW 20 28 11 15 1013.4 1012.0 0.0
04/12:00pm 34.2 30.9 14.1 29 12.5 NW 24 35 13 19 1013.7 1012.3 0.0
04/11:30am 33.6 30.6 13.6 29 12.3 N 22 32 12 17 1014.3 1012.8 0.0
04/11:00am 32.1 30.0 14.7 35 10.8 NNW 19 28 10 15 1014.5 1013.0 0.0
04/10:30am 30.7 28.3 13.9 36 10.3 N 19 28 10 15 1014.5 1013.0 0.0
04/10:00am 30.3 28.0 14.0 37 10.0 N 19 30 10 16 1014.7 1013.2 0.0
04/09:30am 30.2 26.7 13.5 36 10.1 N 24 33 13 18 1014.8 1013.3 0.0
04/09:00am 29.3 27.7 15.1 42 8.8 NNE 17 28 9 15 1014.6 1013.1 0.0
04/08:30am 27.6 26.1 15.3 47 7.6 NNE 17 20 9 11 1014.5 1013.0 0.0
04/08:00am 26.2 24.0 15.0 50 6.8 NNE 20 26 11 14 1014.5 1013.0 0.0
04/07:30am 24.6 23.6 14.7 54 6.0 NNE 13 17 7 9 1014.5 1013.0 0.0
04/07:00am 22.2 22.5 15.1 64 4.3 NE 7 9 4 5 1014.4 1012.9 0.0
04/06:30am 19.7 19.7 14.3 71 3.2 NE 7 9 4 5 1014.2 1012.7 0.0
04/06:00am 18.5 19.5 13.1 71 3.1 CALM 0 0 0 0 1013.6 1012.2 0.0
04/05:30am 18.1 18.9 12.5 70 3.2 CALM 0 2 0 1 1013.4 1012.0 0.0
04/05:00am 19.6 20.4 12.4 63 4.1 CALM 0 7 0 4 1013.0 1011.5 0.0
04/04:30am 18.9 17.4 10.7 59 4.5 NNE 9 11 5 6 1012.8 1011.3 0.0
04/04:00am 19.4 18.2 10.4 56 4.9 NE 7 11 4 6 1012.7 1011.2 0.0
04/03:30am 17.5 14.7 8.4 55 4.7 NE 13 17 7 9 1012.7 1011.2 0.0
04/03:00am 17.1 14.9 10.7 66 3.5 NE 13 15 7 8 1012.5 1011.0 0.0
04/02:30am 15.7 14.6 10.5 71 2.8 NNE 7 11 4 6 1012.6 1011.1 0.0
04/02:00am 16.9 15.9 10.3 65 3.6 NNW 6 9 3 5 1012.8 1011.3 0.0
04/01:30am 15.9 13.9 10.0 68 3.1 NE 11 13 6 7 1013.1 1011.6 0.0
04/01:00am 16.3 14.5 9.5 64 3.6 ENE 9 11 5 6 1013.5 1012.1 0.0
04/12:30am 18.0 17.2 11.1 64 3.8 ENE 6 11 3 6 1013.7 1012.3 0.0
04/12:00am 16.2 14.8 9.6 65 3.5 ENE 7 11 4 6 1013.7 1012.3 0.0
 
Date/Time
EDT
Temp
°C
App
Temp
°C
Dew
Point
°C
Rel
Hum
%
Delta-T
°C
Wind Press
QNH
hPa
Press
MSL
hPa
Rain since
9am
mm
Dir  Spd
km/h
Gust
km/h
Spd
kts
Gust
kts
03/11:30pm 17.9 17.0 9.3 57 4.6 NE 4 11 2 6 1013.9 1012.5 0.0
03/11:00pm 20.6 18.5 9.8 50 5.9 E 11 15 6 8 1013.7 1012.3 0.0
03/10:30pm 20.3 18.5 9.5 50 5.8 ENE 9 13 5 7 1013.5 1012.1 0.0
03/10:00pm 21.5 21.2 8.7 44 6.9 CALM 0 0 0 0 1013.5 1012.1 0.0
03/09:30pm 22.6 22.2 8.3 40 7.7 CALM 0 6 0 3 1013.0 1011.5 0.0
03/09:00pm 23.6 23.1 7.7 36 8.5 CALM 0 6 0 3 1012.7 1011.2 0.0
03/08:30pm 26.7 24.6 6.7 28 10.7 S 7 11 4 6 1012.4 1010.9 0.0
03/08:00pm 29.3 26.8 6.7 24 12.2 S 9 11 5 6 1012.2 1010.7 0.0
03/07:30pm 31.3 27.2 6.4 21 13.5 SSW 17 20 9 11 1011.9 1010.4 0.0
03/07:00pm 32.9 28.4 6.2 19 14.6 SSW 19 24 10 13 1011.6 1010.1 0.0
03/06:30pm 34.0 30.7 6.3 18 15.3 WSW 13 19 7 10 1011.3 1009.8 0.0
03/06:00pm 33.3 28.5 5.8 18 15.0 SW 20 30 11 16 1011.2 1009.7 0.0
03/05:30pm 34.8 30.5 7.0 18 15.5 SW 19 30 10 16 1011.1 1009.6 0.0
03/05:00pm 34.9 29.3 5.4 16 16.1 SW 24 35 13 19 1011.3 1009.8 0.0
03/04:30pm 35.3 30.1 5.7 16 16.3 WSW 22 39 12 21 1011.4 1009.9 0.0
03/04:00pm 35.7 31.2 6.9 17 16.2 W 20 30 11 16 1011.7 1010.2 0.0
03/03:30pm 35.0 31.3 7.9 19 15.4 WSW 17 24 9 13 1011.9 1010.4 0.0
03/03:00pm 34.4 30.0 7.5 19 15.1 W 20 35 11 19 1012.2 1010.7 0.0
03/02:30pm 34.3 30.1 7.4 19 15.1 WSW 19 33 10 18 1012.5 1011.0 0.0
03/02:00pm 34.2 30.3 9.4 22 14.4 SW 20 35 11 19 1012.7 1011.2 0.0
03/01:30pm 33.4 29.6 7.4 20 14.5 WSW 17 24 9 13 1012.7 1011.2 0.0
03/01:00pm 33.9 29.8 7.8 20 14.7 W 19 28 10 15 1013.0 1011.5 0.0
03/12:30pm 32.7 28.7 8.2 22 13.8 SW 19 30 10 16 1013.3 1011.9 0.0
03/12:00pm 33.0 30.6 8.5 22 13.9 W 11 20 6 11 1013.4 1012.0 0.0
03/11:30am 32.1 28.7 7.7 22 13.6 WSW 15 22 8 12 1013.6 1012.2 0.0
03/11:00am 32.6 29.5 7.4 21 14.0 WNW 13 20 7 11 1013.7 1012.3 0.0
03/10:30am 31.6 29.1 6.6 21 13.7 W 9 17 5 9 1013.8 1012.4 0.0
03/10:00am 30.8 29.6 7.9 24 12.7 SSW 4 9 2 5 1014.1 1012.6 0.0
03/09:30am 30.2 28.1 6.8 23 12.7 N 7 13 4 7 1013.9 1012.5 0.0
03/09:00am 28.6 27.7 9.3 30 10.9 N 4 11 2 6 1014.1 1012.6 0.0
03/08:30am 26.7 25.6 10.8 37 9.1 ENE 7 11 4 6 1013.8 1012.4 0.0
03/08:00am 24.5 23.5 11.1 43 7.6 ENE 7 9 4 5 1013.6 1012.2 0.0
03/07:30am 20.3 20.9 11.8 58 4.8 CALM 0 0 0 0 1013.5 1012.1 0.0
03/07:00am 17.2 15.8 10.8 66 3.5 NE 9 11 5 6 1013.3 1011.9 0.0
03/06:30am 14.1 12.1 10.1 77 2.1 ENE 11 13 6 7 1013.3 1011.9 0.0
03/06:00am 12.9 11.7 9.7 81 1.7 NE 6 7 3 4 1013.0 1011.5 0.0

Other Formats:

Comma delimited format used in spreadsheet applications
http://www.bom.gov.au/fwo/IDN60801/IDN60801.95717.axf

JavaScript Object Notation format (JSON) in row-major order
http://www.bom.gov.au/fwo/IDN60801/IDN60801.95717.json